Latest Weather Observations for Mudgee

IDN60801

Issued at 11:34 am EDT Saturday 28 February 2015 (issued every 30 minutes, with the page automatically refreshed every 10 minutes)

About weather observations | Map of weather stations | Latest weather observations for NSW | Other Formats
Station Details ID: 062101 Name: MUDGEE AIRPORT AWS Lat: -32.56 Lon: 149.61 Height: 471.0 m
Data from the previous 72 hours. | See also: Recent months at Mudgee
Date/Time
EDT
Temp
°C
App
Temp
°C
Dew
Point
Rel
Hum
%
Delta-T
°C
Wind Press
QNH
hPa
Press
MSL
hPa
Rain
since 9 am
mm
Dir
 
Spd
km/h
Gust
km/h
Spd
kts
Gust
kts
28/11:30am 25.1 25.8 16.0 57 5.7 NNW 7 13 4 7 1012.4 1010.1 0.0
28/11:00am 24.6 26.1 16.6 61 5.0 SW 4 7 2 4 1012.5 1010.2 0.0
28/10:30am 22.8 24.3 16.6 68 3.9 SSW 4 7 2 4 1012.8 1010.4 0.0
28/10:00am 21.8 22.7 16.1 70 3.5 SSE 6 9 3 5 1012.8 1010.4 0.0
28/09:30am 20.8 21.6 16.4 76 2.7 SE 7 9 4 5 1012.7 1010.3 0.0
28/09:00am 19.2 20.5 17.2 88 1.2 SSE 6 7 3 4 1012.7 1010.3 0.0
28/08:30am 17.7 19.8 17.1 96 0.4 NNW 2 6 1 3 1012.5 1010.2 0.0
28/08:00am 17.4 19.0 16.9 97 0.3 ESE 4 7 2 4 1012.3 1010.0 0.0
28/07:30am 16.7 18.9 16.4 98 0.2 CALM 0 0 0 0 1012.2 1009.9 0.0
28/07:00am 16.0 17.9 15.7 98 0.2 CALM 0 0 0 0 1012.0 1009.6 0.0
28/06:30am 15.8 17.6 15.5 98 0.2 CALM 0 0 0 0 1011.7 1009.3 0.0
28/05:30am 16.8 19.0 16.5 98 0.2 CALM 0 0 0 0 1011.4 1009.0 0.0
28/05:00am 16.5 17.4 16.0 97 0.3 ENE 6 9 3 5 1011.2 1008.8 0.0
28/04:30am 17.0 17.4 15.3 90 1.0 SSE 7 11 4 6 1011.1 1008.7 0.0
28/04:00am 17.2 17.3 15.4 89 1.1 S 9 11 5 6 1011.0 1008.6 0.0
28/03:30am 17.4 17.7 14.9 85 1.5 S 7 9 4 5 1011.1 1008.7 0.0
28/03:00am 17.4 17.5 14.5 83 1.7 S 7 9 4 5 1011.2 1008.8 0.0
28/02:30am 18.0 19.4 14.5 80 2.1 CALM 0 0 0 0 1011.5 1009.1 0.0
28/02:00am 18.9 19.1 14.6 76 2.6 SSE 7 9 4 5 1011.6 1009.2 0.0
28/01:30am 19.5 20.4 15.2 76 2.6 ESE 4 6 2 3 1011.7 1009.3 0.0
28/01:00am 20.5 21.9 16.5 78 2.5 SE 4 7 2 4 1011.6 1009.2 0.0
28/12:30am 20.5 22.3 16.5 78 2.5 ENE 2 9 1 5 1011.8 1009.4 0.0
28/12:00am 20.0 20.5 15.6 76 2.7 NNE 7 9 4 5 1012.1 1009.7 0.0
 
Date/Time
EDT
Temp
°C
App
Temp
°C
Dew
Point
Rel
Hum
%
Delta-T
°C
Wind Press
QNH
hPa
Press
MSL
hPa
Rain
since 9 am
mm
Dir
 
Spd
km/h
Gust
km/h
Spd
kts
Gust
kts
27/11:30pm 21.5 22.4 16.2 72 3.3 NE 6 13 3 7 1012.0 1009.6 0.0
27/11:00pm 22.6 23.3 16.2 67 4.0 ESE 7 13 4 7 1012.1 1009.7 0.0
27/10:30pm 23.0 23.1 15.6 63 4.5 ENE 9 13 5 7 1011.9 1009.5 0.0
27/10:00pm 23.0 22.9 14.0 57 5.4 NE 7 11 4 6 1011.6 1009.2 0.0
27/09:30pm 24.7 23.8 13.6 50 6.6 ENE 11 20 6 11 1011.0 1008.6 0.0
27/09:00pm 25.0 23.8 12.9 47 7.2 ENE 11 15 6 8 1010.6 1008.2 0.0
27/08:30pm 25.6 24.1 13.1 46 7.4 ENE 13 19 7 10 1009.9 1007.5 0.0
27/08:00pm 26.3 24.3 12.7 43 8.1 NE 15 20 8 11 1009.6 1007.2 0.0
27/07:30pm 27.6 26.5 12.0 38 9.2 E 9 13 5 7 1009.1 1006.7 0.0
27/07:00pm 28.7 27.5 11.7 35 10.0 ESE 9 15 5 8 1008.9 1006.5 0.0
27/06:30pm 29.0 28.2 11.1 33 10.5 ESE 6 11 3 6 1008.7 1006.3 0.0
27/06:00pm 29.0 27.8 11.6 34 10.3 E 9 13 5 7 1008.6 1006.2 0.0
27/05:30pm 29.2 26.8 11.3 33 10.5 SSE 15 24 8 13 1008.5 1006.1 0.0
27/05:00pm 29.7 28.4 11.2 31 10.9 W 9 17 5 9 1008.4 1005.9 0.0
27/04:30pm 29.4 28.2 11.5 33 10.5 SSW 9 17 5 9 1008.6 1006.2 0.0
27/04:00pm 28.7 28.5 11.7 35 10.0 NNE 4 9 2 5 1008.9 1006.5 0.0
27/03:30pm 29.1 27.4 12.5 36 9.9 NNE 13 20 7 11 1009.2 1006.8 0.0
27/03:00pm 28.3 26.5 12.2 37 9.6 NNW 13 20 7 11 1009.4 1007.0 0.0
27/02:30pm 27.0 26.0 12.3 40 8.7 ENE 9 20 5 11 1010.1 1007.7 0.0
27/02:00pm 26.7 26.0 13.1 43 8.1 NE 9 17 5 9 1010.5 1008.1 0.0
27/01:30pm 27.3 25.9 13.3 42 8.4 ENE 13 24 7 13 1010.8 1008.4 0.0
27/01:00pm 25.9 24.7 14.1 48 7.2 ENE 13 30 7 16 1011.1 1008.7 0.0
27/12:30pm 26.6 24.5 14.7 48 7.3 E 19 30 10 16 1011.4 1009.0 0.0
27/12:00pm 25.7 23.6 13.5 46 7.3 NE 17 26 9 14 1011.7 1009.3 0.0
27/11:30am 24.1 22.5 13.9 53 6.1 E 15 20 8 11 1012.1 1009.7 0.0
27/11:00am 24.0 23.4 14.7 56 5.6 E 11 20 6 11 1012.2 1009.9 0.0
27/10:30am 24.1 23.5 15.6 59 5.2 ESE 13 20 7 11 1012.2 1009.9 0.0
27/10:00am 22.7 22.0 15.3 63 4.5 SE 13 24 7 13 1012.3 1010.0 0.0
27/09:30am 21.4 19.9 15.3 68 3.7 SE 17 22 9 12 1012.4 1010.1 0.0
27/09:00am 20.3 18.7 15.1 72 3.1 SE 17 24 9 13 1012.3 1010.0 0.0
27/08:30am 19.5 18.5 15.6 78 2.4 SE 15 20 8 11 1012.2 1009.9 0.0
27/08:00am 17.9 18.3 16.2 90 1.0 SE 9 13 5 7 1012.0 1009.6 0.0
27/07:30am 16.2 17.0 15.9 98 0.2 SSW 6 7 3 4 1011.6 1009.2 0.0
27/07:00am 15.9 17.4 15.6 98 0.2 SSE 2 7 1 4 1011.2 1008.8 0.0
27/06:30am 15.1 16.7 14.8 98 0.2 CALM 0 6 0 3 1010.7 1008.3 0.0
27/06:00am 15.2 16.4 14.9 98 0.2 NE 2 7 1 4 1010.2 1007.8 0.0
27/05:30am 15.3 15.8 15.0 98 0.2 E 6 7 3 4 1009.9 1007.5 0.0
27/05:00am 15.5 15.1 15.2 98 0.2 SSE 11 17 6 9 1009.5 1007.1 0.0
27/04:30am 15.5 16.0 14.9 96 0.4 SSE 6 9 3 5 1009.7 1007.3 0.0
27/04:00am 15.6 17.1 14.6 94 0.6 CALM 0 0 0 0 1009.7 1007.3 0.0
27/03:30am 15.3 15.7 13.7 90 0.9 S 4 6 2 3 1009.7 1007.3 0.0
27/03:00am 15.7 16.8 13.5 87 1.3 CALM 0 0 0 0 1009.6 1007.2 0.0
27/02:30am 16.4 17.3 13.9 85 1.4 NNE 2 7 1 4 1009.8 1007.4 0.0
27/02:00am 17.5 16.8 14.4 82 1.8 SSE 11 15 6 8 1010.0 1007.6 0.0
27/01:30am 17.5 17.6 14.0 80 2.0 SE 6 9 3 5 1010.4 1008.0 0.0
27/01:00am 17.9 17.5 14.0 78 2.3 SSE 9 11 5 6 1010.8 1008.4 0.0
27/12:30am 18.3 18.0 14.4 78 2.3 SSE 9 13 5 7 1010.7 1008.3 0.0
27/12:00am 18.6 17.9 14.3 76 2.5 SSE 11 13 6 7 1010.6 1008.2 0.0
 
Date/Time
EDT
Temp
°C
App
Temp
°C
Dew
Point
Rel
Hum
%
Delta-T
°C
Wind Press
QNH
hPa
Press
MSL
hPa
Rain
since 9 am
mm
Dir
 
Spd
km/h
Gust
km/h
Spd
kts
Gust
kts
26/11:30pm 19.1 17.9 14.1 73 2.9 SSE 13 17 7 9 1010.7 1008.3 0.0
26/11:00pm 19.8 19.4 14.0 69 3.4 SSE 9 15 5 8 1010.8 1008.4 0.0
26/10:30pm 21.0 19.8 13.9 64 4.2 SE 13 17 7 9 1010.9 1008.5 0.0
26/10:00pm 21.5 19.2 14.2 63 4.4 SSE 19 26 10 14 1010.7 1008.3 0.0
26/09:30pm 22.7 20.6 14.8 61 4.8 SSE 19 28 10 15 1010.4 1008.0 0.0
26/09:00pm 23.3 22.7 15.6 62 4.7 E 13 20 7 11 1009.5 1007.1 0.0
26/08:30pm 24.4 22.6 13.3 50 6.6 SE 15 24 8 13 1008.8 1006.4 0.0
26/08:00pm 24.8 23.7 13.0 47 7.0 S 11 13 6 7 1007.9 1005.5 0.0
26/07:30pm 25.3 23.1 13.2 47 7.2 SSE 17 24 9 13 1007.4 1005.0 0.0
26/07:00pm 25.8 22.2 13.0 45 7.6 S 24 33 13 18 1006.8 1004.4 0.0
26/06:30pm 28.5 26.5 14.0 41 8.9 W 17 26 9 14 1006.2 1003.7 0.0
26/06:00pm 29.6 27.1 14.2 39 9.5 WSW 20 28 11 15 1006.1 1003.6 0.0
26/05:30pm 29.6 28.9 14.2 39 9.5 WNW 11 20 6 11 1006.1 1003.6 0.0
26/05:00pm 29.3 30.3 16.8 47 8.0 W 7 15 4 8 1006.3 1003.8 0.0
26/04:30pm 28.1 27.9 16.7 50 7.2 S 13 17 7 9 1006.8 1004.4 0.0
26/04:00pm 28.1 28.9 17.3 52 6.9 S 9 13 5 7 1007.2 1004.8 0.0
26/03:30pm 28.4 29.2 17.3 51 7.1 NNE 9 19 5 10 1007.6 1005.2 0.0
26/03:00pm 27.6 29.1 17.7 54 6.4 WSW 6 13 3 7 1008.2 1005.7 0.0
26/02:30pm 27.1 27.3 17.6 56 6.1 NW 13 22 7 12 1008.8 1006.4 0.0
26/02:00pm 26.1 26.2 16.6 55 6.0 NW 11 20 6 11 1009.2 1006.8 0.0
26/01:30pm 26.2 26.4 17.6 59 5.5 WNW 13 20 7 11 1009.6 1007.2 0.0
26/01:00pm 25.5 25.2 17.4 61 5.2 N 15 20 8 11 1009.9 1007.5 0.0
26/12:30pm 24.9 25.7 17.4 63 4.8 NNW 9 13 5 7 1010.4 1008.0 0.0
26/12:00pm 25.0 26.3 17.5 63 4.8 NW 7 15 4 8 1011.0 1008.6 0.0
26/11:30am 24.2 26.3 17.2 65 4.4 SSW 2 9 1 5 1011.4 1009.0 0.0
26/11:06am 23.3 24.4 17.1 68 3.9 S 7 11 4 6 1011.5 1009.1 0.0
26/11:00am 23.1 24.6 16.6 67 4.1 ENE 4 11 2 6 1011.5 1009.1 0.0
26/10:44am 22.9 23.9 16.9 69 3.8 E 7 13 4 7 1011.8 1009.4 0.0
26/10:30am 23.1 24.4 17.1 69 3.8 NNE 6 11 3 6 1011.7 1009.3 0.0
26/10:00am 21.3 22.1 16.3 73 3.1 ESE 7 13 4 7 1011.9 1009.5 0.0
26/09:54am 21.2 22.1 16.0 72 3.2 ESE 6 11 3 6 1011.9 1009.5 0.0
26/09:30am 21.0 22.8 16.4 75 2.8 SE 2 9 1 5 1012.0 1009.6 0.0
26/09:04am 20.5 20.8 16.1 76 2.7 SSE 9 13 5 7 1012.0 1009.6 0.0
26/09:00am 20.4 20.8 16.2 77 2.6 SSE 9 15 5 8 1011.9 1009.5 5.2
26/08:30am 19.4 19.8 16.4 83 1.8 SSE 9 13 5 7 1011.8 1009.4 5.2
26/08:05am 19.2 19.6 16.2 83 1.8 SSE 9 13 5 7 1011.7 1009.3 5.2
26/08:00am 19.0 19.4 16.2 84 1.7 SSE 9 13 5 7 1011.7 1009.3 5.2
26/07:30am 18.8 19.2 16.2 85 1.6 SSE 9 11 5 6 1011.6 1009.2 5.2
26/07:00am 18.6 19.6 16.4 87 1.3 SE 6 7 3 4 1011.5 1009.1 5.2
26/06:30am 18.6 19.6 16.4 87 1.3 SE 6 9 3 5 1011.5 1009.1 5.2
26/06:00am 18.4 18.8 16.2 87 1.3 SE 9 11 5 6 1011.2 1008.8 5.2
26/05:30am 18.3 18.8 16.5 89 1.1 SSE 9 11 5 6 1011.3 1008.9 5.2
26/05:00am 18.2 18.3 16.4 89 1.1 S 11 13 6 7 1011.3 1008.9 5.2
26/04:30am 18.1 18.5 16.4 90 1.0 SSE 9 13 5 7 1011.3 1008.9 5.2
26/04:00am 18.1 18.0 16.1 88 1.2 SSE 11 15 6 8 1011.5 1009.1 5.2
26/03:30am 18.2 18.6 16.2 88 1.2 SSE 9 15 5 8 1011.6 1009.2 5.2
26/03:00am 18.1 18.5 16.3 89 1.1 SSE 9 17 5 9 1011.8 1009.4 5.2
26/02:30am 18.3 17.7 15.7 85 1.6 SSE 13 22 7 12 1012.2 1009.9 5.2
26/02:00am 18.3 17.8 15.9 86 1.5 SSE 13 20 7 11 1012.5 1010.2 5.2
26/01:30am 18.2 18.0 15.8 86 1.4 SSE 11 19 6 10 1013.0 1010.6 5.2
26/01:22am 18.2 18.4 15.8 86 1.4 SE 9 13 5 7 1013.1 1010.7 5.2
26/01:00am 18.2 18.3 15.6 85 1.6 SE 9 15 5 8 1013.2 1010.8 5.2
26/12:30am 18.7 19.3 15.9 84 1.7 ESE 7 9 4 5 1013.4 1011.0 5.2
26/12:00am 19.0 19.7 16.2 84 1.7 E 7 11 4 6 1013.7 1011.3 5.2
 
Date/Time
EDT
Temp
°C
App
Temp
°C
Dew
Point
Rel
Hum
%
Delta-T
°C
Wind Press
QNH
hPa
Press
MSL
hPa
Rain
since 9 am
mm
Dir
 
Spd
km/h
Gust
km/h
Spd
kts
Gust
kts
25/11:30pm 18.6 18.8 16.8 89 1.1 S 11 15 6 8 1013.6 1011.2 5.2
25/11:00pm 19.0 19.1 16.4 85 1.6 SSE 11 17 6 9 1013.6 1011.2 5.2
25/10:30pm 18.5 17.5 16.7 89 1.1 S 17 26 9 14 1013.5 1011.1 5.2
25/10:00pm 18.5 17.4 16.3 87 1.3 S 17 22 9 12 1013.8 1011.4 5.2
25/09:30pm 18.2 17.5 16.4 89 1.1 ESE 15 24 8 13 1013.2 1010.8 5.2
25/09:00pm 17.9 17.2 15.5 86 1.4 SE 13 20 7 11 1015.3 1012.9 5.0
25/08:30pm 20.3 17.1 14.2 68 3.6 WSW 24 33 13 18 1015.5 1013.1 4.4
25/08:00pm 20.6 20.0 13.6 64 4.1 SSE 9 13 5 7 1013.5 1011.1 4.4
25/07:30pm 20.9 20.0 13.8 64 4.2 SE 11 22 6 12 1012.9 1010.5 4.4
25/07:00pm 21.2 18.7 14.1 64 4.2 ESE 20 35 11 19 1012.2 1009.9 4.4
25/06:30pm 21.6 18.2 15.7 69 3.6 SE 28 46 15 25 1012.8 1010.4 4.4
25/06:14pm 22.2 19.6 15.8 67 3.9 ESE 24 50 13 27 1012.8 1010.4 4.4
25/06:00pm 22.8 21.2 17.5 72 3.3 SE 22 39 12 21 1012.3 1010.0 4.4
25/05:30pm 22.5 20.8 18.1 76 2.8 SSE 24 35 13 19 1011.6 1009.2 4.2
25/05:15pm 23.6 23.0 18.5 73 3.3 SSE 19 39 10 21 1012.1 1009.7 3.8
25/05:00pm 23.0 22.4 17.5 71 3.5 SSE 17 33 9 18 1011.9 1009.5 3.2
25/04:30pm 27.6 24.8 14.3 44 8.1 SE 22 35 12 19 1011.0 1008.6 0.0
25/04:00pm 28.2 27.1 14.4 42 8.5 ESE 13 19 7 10 1011.4 1009.0 0.0
25/03:30pm 29.6 28.5 14.2 39 9.5 E 13 24 7 13 1011.9 1009.5 0.0
25/03:00pm 29.5 29.1 14.1 39 9.5 SE 9 17 5 9 1012.5 1010.2 0.0
25/02:30pm 28.3 27.0 13.8 41 8.8 SE 13 20 7 11 1013.4 1011.0 0.0
25/02:00pm 28.2 28.3 15.5 46 7.9 SSW 9 15 5 8 1014.0 1011.6 0.0
25/01:30pm 27.7 27.6 15.0 45 7.9 SE 9 17 5 9 1014.5 1012.2 0.0
25/01:00pm 27.1 27.1 15.1 47 7.4 E 9 20 5 11 1015.1 1012.7 0.0
25/12:30pm 26.3 25.0 14.7 48 7.1 ENE 15 26 8 14 1015.4 1013.0 0.0
25/12:00pm 25.3 23.9 14.4 50 6.6 E 15 20 8 11 1016.1 1013.8 0.0

Other Formats:

Comma delimited format used in spreadsheet applications
http://www.bom.gov.au/fwo/IDN60801/IDN60801.94727.axf

JavaScript Object Notation format (JSON) in row-major order
http://www.bom.gov.au/fwo/IDN60801/IDN60801.94727.json